Houston, Texas
Traffic Map
Current Weather Conditions
Houston, Texas
Overcast
Overcast
15°
Feels Like: 15°
Wind Chill: 15° Ceiling: 100
Heat Index: 15° Visibility: 0mi
Dew Point: 15° Wind: 6mph
Humidity: 100% Direction: 330° (NNW)
Pressure: 30.15in Gusts: 0mph
Raw Report DataKMCJ 011935Z AUTO 33005KT M1/4SM OVC001 15/15 A3015 RMK AO1
Traffic Incident Summary
Active as of:
Severity:
Category:
InformationThere was an issue retrieving the traffic information for this location. Please try a different location or try again shortly.
Advertisements
Track Severe Weather on mobile